createdAt,value
2018-06-15T00:02:02.842Z,0.60
2018-06-15T00:04:37.154Z,0.60
2018-06-15T00:07:11.302Z,0.60
2018-06-15T00:09:45.688Z,0.60
2018-06-15T00:12:19.849Z,0.70
2018-06-15T00:14:54.185Z,0.60
2018-06-15T00:17:28.328Z,0.60
2018-06-15T00:20:02.617Z,0.60
2018-06-15T00:22:36.934Z,0.60
2018-06-15T00:25:11.103Z,0.60
2018-06-15T00:27:45.292Z,0.60
2018-06-15T00:30:20.426Z,0.60
2018-06-15T00:32:55.486Z,0.60
2018-06-15T00:35:29.868Z,0.60
2018-06-15T00:38:04.151Z,0.70
2018-06-15T00:40:38.388Z,0.60
2018-06-15T00:43:12.622Z,0.60
2018-06-15T00:45:46.905Z,0.60
2018-06-15T00:48:21.028Z,0.70
2018-06-15T00:50:55.193Z,0.67
2018-06-15T00:53:29.340Z,0.60
2018-06-15T00:56:03.736Z,0.67
2018-06-15T00:58:37.963Z,0.60
2018-06-15T01:01:12.164Z,0.60
2018-06-15T01:03:46.438Z,0.50
2018-06-15T01:06:21.554Z,0.60
2018-06-15T01:08:55.707Z,0.60
2018-06-15T01:11:29.800Z,0.60
2018-06-15T01:14:04.902Z,0.70
2018-06-15T01:16:39.164Z,0.60
2018-06-15T01:19:13.442Z,0.60
2018-06-15T01:21:48.569Z,0.70
2018-06-15T01:24:22.877Z,0.60
2018-06-15T01:26:57.793Z,0.60
2018-06-15T01:29:32.091Z,0.60
2018-06-15T01:32:07.009Z,0.60
2018-06-15T01:34:41.260Z,0.60
2018-06-15T01:37:15.529Z,0.60
2018-06-15T01:39:49.742Z,0.60
2018-06-15T01:42:24.113Z,0.60
2018-06-15T01:44:59.177Z,0.60
2018-06-15T01:47:33.278Z,0.70
2018-06-15T01:50:07.554Z,0.60
2018-06-15T01:52:41.846Z,0.60
2018-06-15T01:55:16.212Z,0.60
2018-06-15T01:57:50.281Z,0.60
2018-06-15T02:00:24.576Z,0.60
2018-06-15T02:02:59.584Z,0.70
2018-06-15T02:05:33.882Z,0.60
2018-06-15T02:08:08.125Z,0.60
2018-06-15T02:10:42.432Z,0.60
2018-06-15T02:13:16.576Z,0.60
2018-06-15T02:15:50.799Z,0.60
2018-06-15T02:18:24.998Z,0.70
2018-06-15T02:20:59.156Z,0.60
2018-06-15T02:23:33.318Z,0.60
2018-06-15T02:26:07.449Z,0.60
2018-06-15T02:28:41.722Z,0.60
2018-06-15T02:31:15.836Z,0.60
2018-06-15T02:33:50.157Z,0.60
2018-06-15T02:36:25.064Z,0.67
2018-06-15T02:38:59.352Z,0.60
2018-06-15T02:41:33.504Z,0.60
2018-06-15T02:44:07.727Z,0.60
2018-06-15T02:46:41.825Z,0.70
2018-06-15T02:49:15.979Z,0.60
2018-06-15T02:51:50.125Z,0.60
2018-06-15T02:54:25.065Z,0.60
2018-06-15T02:56:59.375Z,0.60
2018-06-15T02:59:33.580Z,0.60
2018-06-15T03:02:07.722Z,0.70
2018-06-15T03:04:42.015Z,0.60
2018-06-15T03:07:16.263Z,0.70
2018-06-15T03:09:50.381Z,0.70
2018-06-15T03:12:24.587Z,0.60
2018-06-15T03:14:58.877Z,0.60
2018-06-15T03:17:33.144Z,0.60
2018-06-15T03:20:07.532Z,0.70
2018-06-15T03:22:41.685Z,0.70
2018-06-15T03:25:16.041Z,0.70
2018-06-15T03:27:50.120Z,0.60
2018-06-15T03:30:24.368Z,0.60
2018-06-15T03:32:59.291Z,0.70
2018-06-15T03:35:33.498Z,0.70
2018-06-15T03:38:07.715Z,0.60
2018-06-15T03:40:41.981Z,0.60
2018-06-15T03:43:16.105Z,0.60
2018-06-15T03:45:50.522Z,0.70
2018-06-15T03:48:25.554Z,0.60
2018-06-15T03:50:59.950Z,0.60
2018-06-15T03:53:34.108Z,0.60
2018-06-15T03:56:08.255Z,0.60
2018-06-15T03:58:42.381Z,0.70
2018-06-15T04:01:16.536Z,0.60
2018-06-15T04:03:50.965Z,0.60
2018-06-15T04:06:25.326Z,0.60
2018-06-15T04:09:00.442Z,0.60
2018-06-15T04:11:34.709Z,0.60
2018-06-15T04:14:08.996Z,0.67
2018-06-15T04:16:44.014Z,0.70
2018-06-15T04:19:18.994Z,0.70
2018-06-15T04:21:53.088Z,0.70
2018-06-15T04:24:27.232Z,0.60
2018-06-15T04:27:01.347Z,0.60
2018-06-15T04:29:35.608Z,0.70
2018-06-15T04:32:10.608Z,0.60
2018-06-15T04:34:44.912Z,0.60
2018-06-15T04:37:19.030Z,0.60
2018-06-15T04:39:53.351Z,0.60
2018-06-15T04:42:27.516Z,0.60
2018-06-15T04:45:02.627Z,0.60
2018-06-15T04:47:36.954Z,0.60
2018-06-15T04:50:11.094Z,0.60
2018-06-15T04:52:45.302Z,0.60
2018-06-15T04:55:19.628Z,0.70
2018-06-15T04:57:53.741Z,0.60
2018-06-15T05:00:28.103Z,0.60
2018-06-15T05:03:02.409Z,0.60
2018-06-15T05:05:36.693Z,0.60
2018-06-15T05:08:11.788Z,0.70
2018-06-15T05:10:46.138Z,0.60
2018-06-15T05:13:20.257Z,0.60
2018-06-15T05:15:55.316Z,0.60
2018-06-15T05:18:29.644Z,0.60
2018-06-15T05:21:03.954Z,0.60
2018-06-15T05:23:38.236Z,0.60
2018-06-15T05:26:13.218Z,0.60
2018-06-15T05:28:47.428Z,0.60
2018-06-15T05:31:21.561Z,0.60
2018-06-15T05:33:55.768Z,0.60
2018-06-15T05:36:29.994Z,0.60
2018-06-15T05:39:04.119Z,0.60
2018-06-15T05:41:38.201Z,0.60
2018-06-15T05:44:12.481Z,0.60
2018-06-15T05:46:47.331Z,0.60
2018-06-15T05:49:22.313Z,0.60
2018-06-15T05:51:56.573Z,0.60
2018-06-15T05:54:30.836Z,0.60
2018-06-15T05:57:05.165Z,0.60
2018-06-15T05:59:39.260Z,0.60
2018-06-15T06:02:13.529Z,0.60
2018-06-15T06:04:47.727Z,0.60
2018-06-15T06:07:22.874Z,0.60
2018-06-15T06:09:57.161Z,0.50
2018-06-15T06:12:31.418Z,0.60
2018-06-15T06:15:05.671Z,0.60
2018-06-15T06:17:40.765Z,0.60
2018-06-15T06:20:15.018Z,0.60
2018-06-15T06:22:49.387Z,0.50
2018-06-15T06:25:23.513Z,0.60
2018-06-15T06:27:57.727Z,0.57
2018-06-15T06:30:31.797Z,0.60
2018-06-15T06:33:06.123Z,0.60
2018-06-15T06:35:40.379Z,0.60
2018-06-15T06:38:14.555Z,0.60
2018-06-15T06:40:49.467Z,0.60
2018-06-15T06:43:23.580Z,0.60
2018-06-15T06:45:57.821Z,0.60
2018-06-15T06:48:32.100Z,0.50
2018-06-15T06:51:06.216Z,0.53
2018-06-15T06:53:41.320Z,0.57
2018-06-15T06:56:16.203Z,0.60
2018-06-15T06:58:50.525Z,0.50
2018-06-15T07:01:24.752Z,0.60
2018-06-15T07:03:58.969Z,0.60
2018-06-15T07:06:33.267Z,0.60
2018-06-15T07:09:08.333Z,0.60
2018-06-15T07:11:43.257Z,0.60
2018-06-15T07:14:17.563Z,0.60
2018-06-15T07:16:51.843Z,0.50
2018-06-15T07:19:25.957Z,0.60
2018-06-15T07:22:00.219Z,0.60
2018-06-15T07:24:34.451Z,0.60
2018-06-15T07:27:09.409Z,0.60
2018-06-15T07:29:43.620Z,0.60
2018-06-15T07:32:17.933Z,0.60
2018-06-15T07:34:52.145Z,0.50
2018-06-15T07:37:26.336Z,0.50
2018-06-15T07:40:00.599Z,0.50
2018-06-15T07:42:35.492Z,0.60
2018-06-15T07:45:09.759Z,0.60
2018-06-15T07:47:43.932Z,0.50
2018-06-15T07:50:18.003Z,0.50
2018-06-15T07:52:52.264Z,0.50
2018-06-15T07:55:26.568Z,0.50
2018-06-15T07:58:00.683Z,0.50
2018-06-15T08:00:34.869Z,0.60
2018-06-15T08:03:10.502Z,0.60
2018-06-15T08:05:44.742Z,0.60
2018-06-15T08:08:19.066Z,0.50
2018-06-15T08:10:53.369Z,0.50
2018-06-15T08:13:27.764Z,0.60
2018-06-15T08:16:02.648Z,0.57
2018-06-15T08:18:36.859Z,0.50
2018-06-15T08:21:11.032Z,0.60
2018-06-15T08:23:45.252Z,0.50
2018-06-15T08:26:19.396Z,0.50
2018-06-15T08:28:53.727Z,0.50
2018-06-15T08:31:28.026Z,0.60
2018-06-15T08:34:02.266Z,0.50
2018-06-15T08:36:36.411Z,0.50
2018-06-15T08:39:10.690Z,0.53
2018-06-15T08:41:44.822Z,0.50
2018-06-15T08:44:19.005Z,0.50
2018-06-15T08:46:53.306Z,0.60
2018-06-15T08:49:27.519Z,0.60
2018-06-15T08:52:01.694Z,0.50
2018-06-15T08:54:35.915Z,0.50
2018-06-15T08:57:10.095Z,0.57
2018-06-15T08:59:44.231Z,0.53
2018-06-15T09:02:18.351Z,0.50
2018-06-15T09:04:52.626Z,0.50
2018-06-15T09:07:26.943Z,0.60
2018-06-15T09:10:01.848Z,0.50
2018-06-15T09:12:36.759Z,0.50
2018-06-15T09:15:10.921Z,0.50
2018-06-15T09:17:45.201Z,0.50
2018-06-15T09:20:19.512Z,0.50
2018-06-15T09:22:53.845Z,0.50
2018-06-15T09:25:28.105Z,0.50
2018-06-15T09:28:02.242Z,0.50
2018-06-15T09:30:36.377Z,0.50
2018-06-15T09:33:10.529Z,0.50
2018-06-15T09:35:44.739Z,0.47
2018-06-15T09:38:19.080Z,0.50
2018-06-15T09:40:53.185Z,0.50
2018-06-15T09:43:27.475Z,0.50
2018-06-15T09:46:01.751Z,0.50
2018-06-15T09:48:36.070Z,0.50
2018-06-15T09:51:10.189Z,0.50
2018-06-15T09:53:44.498Z,0.50
2018-06-15T09:56:18.577Z,0.50
2018-06-15T09:58:52.845Z,0.40
2018-06-15T10:01:27.043Z,0.50
2018-06-15T10:04:01.191Z,0.47
2018-06-15T10:06:35.530Z,0.50
2018-06-15T10:09:09.646Z,0.50
2018-06-15T10:11:44.644Z,0.50
2018-06-15T10:14:18.874Z,0.47
2018-06-15T10:16:52.963Z,0.60
2018-06-15T10:19:27.131Z,0.50
2018-06-15T10:22:02.204Z,0.43
2018-06-15T10:24:36.333Z,0.50
2018-06-15T10:27:11.426Z,0.50
2018-06-15T10:29:45.694Z,0.50
2018-06-15T10:32:20.014Z,0.50
2018-06-15T10:34:54.118Z,0.50
2018-06-15T10:37:28.368Z,0.50
2018-06-15T10:40:03.305Z,0.50
2018-06-15T10:42:37.527Z,0.50
2018-06-15T10:45:11.813Z,0.50
2018-06-15T10:47:46.888Z,0.50
2018-06-15T10:50:21.838Z,0.40
2018-06-15T10:52:56.926Z,0.50
2018-06-15T10:55:31.262Z,0.40
2018-06-15T10:58:05.559Z,0.50
2018-06-15T11:00:39.767Z,0.50
2018-06-15T11:03:14.019Z,0.50
2018-06-15T11:05:48.282Z,0.50
2018-06-15T11:08:22.546Z,0.50
2018-06-15T11:10:56.717Z,0.50
2018-06-15T11:13:31.058Z,0.50
2018-06-15T11:16:05.276Z,0.50
2018-06-15T11:18:39.440Z,0.50
2018-06-15T11:21:13.693Z,0.50
2018-06-15T11:23:47.940Z,0.40
2018-06-15T11:26:22.164Z,0.50
2018-06-15T11:28:56.329Z,0.40
2018-06-15T11:31:30.474Z,0.40
2018-06-15T11:34:04.704Z,0.40
2018-06-15T11:36:38.992Z,0.50
2018-06-15T11:39:13.194Z,0.30
2018-06-15T11:41:47.410Z,0.50
2018-06-15T11:44:21.645Z,0.40
2018-06-15T11:46:55.842Z,0.40
2018-06-15T11:49:30.000Z,0.40
2018-06-15T11:52:04.101Z,0.50
2018-06-15T11:54:38.351Z,0.40
2018-06-15T11:57:12.625Z,0.40
2018-06-15T11:59:47.020Z,0.37
2018-06-15T12:02:21.181Z,0.40
2018-06-15T12:04:55.300Z,0.40
2018-06-15T12:07:29.659Z,0.40
2018-06-15T12:10:03.962Z,0.40
2018-06-15T12:12:38.242Z,0.40
2018-06-15T12:15:13.173Z,0.40
2018-06-15T12:17:47.425Z,0.40
2018-06-15T12:20:21.583Z,0.40
2018-06-15T12:22:55.850Z,0.40
2018-06-15T12:25:30.142Z,0.40
2018-06-15T12:28:04.469Z,0.40
2018-06-15T12:30:38.733Z,0.40
2018-06-15T12:33:13.669Z,0.40
2018-06-15T12:35:47.897Z,0.50
2018-06-15T12:38:22.139Z,0.40
2018-06-15T12:40:57.100Z,0.40
2018-06-15T12:43:31.511Z,0.50
2018-06-15T12:46:05.963Z,0.40
2018-06-15T12:48:40.796Z,0.40
2018-06-15T12:51:15.077Z,0.40
2018-06-15T12:53:49.347Z,0.47
2018-06-15T12:56:34.177Z,0.40
2018-06-15T12:59:08.456Z,0.40
2018-06-15T13:01:42.643Z,0.40
2018-06-15T13:04:16.808Z,0.40
2018-06-15T13:06:51.146Z,0.50
2018-06-15T13:09:25.371Z,0.40
2018-06-15T13:11:59.494Z,0.40
2018-06-15T13:14:33.828Z,0.40
2018-06-15T13:17:08.054Z,0.50
2018-06-15T13:19:42.330Z,0.40
2018-06-15T13:22:16.664Z,0.40
2018-06-15T13:24:50.949Z,0.47
2018-06-15T13:27:25.253Z,0.40
2018-06-15T13:29:59.576Z,0.43
2018-06-15T13:32:33.829Z,0.50
2018-06-15T13:35:07.969Z,0.40
2018-06-15T13:37:42.141Z,0.40
2018-06-15T13:40:16.334Z,0.40
2018-06-15T13:42:50.531Z,0.50
2018-06-15T13:45:24.894Z,0.40
2018-06-15T13:47:59.087Z,0.50
2018-06-15T13:50:33.326Z,0.40
2018-06-15T13:53:07.525Z,0.40
2018-06-15T13:55:42.401Z,0.40
2018-06-15T13:58:16.767Z,0.40
2018-06-15T14:00:51.163Z,0.40
2018-06-15T14:03:25.427Z,0.40
2018-06-15T14:05:59.687Z,0.40
2018-06-15T14:08:33.876Z,0.40
2018-06-15T14:11:08.128Z,0.40
2018-06-15T14:13:52.254Z,0.40
2018-06-15T14:16:27.256Z,0.40
2018-06-15T14:19:01.503Z,0.30
2018-06-15T14:21:35.692Z,0.47
2018-06-15T14:24:09.804Z,0.40
2018-06-15T14:26:44.147Z,0.40
2018-06-15T14:29:18.381Z,0.40
2018-06-15T14:31:52.594Z,0.47
2018-06-15T14:34:26.796Z,0.50
2018-06-15T14:37:00.996Z,0.50
2018-06-15T14:39:35.240Z,0.50
2018-06-15T14:42:10.267Z,0.40
2018-06-15T14:44:44.453Z,0.40
2018-06-15T14:47:18.617Z,0.40
2018-06-15T14:49:52.908Z,0.50
2018-06-15T14:52:26.985Z,0.40
2018-06-15T14:55:01.278Z,0.47
2018-06-15T14:57:35.378Z,0.40
2018-06-15T15:00:09.650Z,0.40
2018-06-15T15:02:43.854Z,0.37
2018-06-15T15:05:17.982Z,0.40
2018-06-15T15:07:52.192Z,0.40
2018-06-15T15:10:27.029Z,0.40
2018-06-15T15:13:01.218Z,0.47
2018-06-15T15:15:36.116Z,0.50
2018-06-15T15:18:10.252Z,0.50
2018-06-15T15:20:44.608Z,0.45
2018-06-15T15:23:18.749Z,0.50
2018-06-15T15:25:52.968Z,0.50
2018-06-15T15:28:27.320Z,0.40
2018-06-15T15:31:01.506Z,0.40
2018-06-15T15:33:35.691Z,0.50
2018-06-15T15:36:10.645Z,0.40
2018-06-15T15:38:44.995Z,0.50
2018-06-15T15:41:19.159Z,0.50
2018-06-15T15:43:53.403Z,0.40
2018-06-15T15:46:27.572Z,0.40
2018-06-15T15:49:01.770Z,0.40
2018-06-15T15:51:35.969Z,0.40
2018-06-15T15:54:10.977Z,0.47
2018-06-15T15:56:45.301Z,0.50
2018-06-15T15:59:19.667Z,0.40
2018-06-15T16:01:53.764Z,0.47
2018-06-15T16:04:28.073Z,0.40
2018-06-15T16:07:03.010Z,0.50
2018-06-15T16:09:37.337Z,0.50
2018-06-15T16:12:11.615Z,0.43
2018-06-15T16:14:45.955Z,0.47
2018-06-15T16:17:20.161Z,0.40
2018-06-15T16:19:54.487Z,0.50
2018-06-15T16:22:28.729Z,0.40
2018-06-15T16:25:03.027Z,0.50
2018-06-15T16:27:38.028Z,0.50
2018-06-15T16:30:12.314Z,0.40
2018-06-15T16:32:46.553Z,0.50
2018-06-15T16:35:20.748Z,0.50
2018-06-15T16:37:55.105Z,0.40
2018-06-15T16:40:29.269Z,0.43
2018-06-15T16:43:04.393Z,0.40
2018-06-15T16:45:38.593Z,0.40
2018-06-15T16:48:12.895Z,0.40
2018-06-15T16:50:47.240Z,0.37
2018-06-15T16:53:21.450Z,0.40
2018-06-15T16:55:55.724Z,0.40
2018-06-15T16:58:30.109Z,0.30
2018-06-15T17:01:04.215Z,0.40
2018-06-15T17:03:38.491Z,0.40
2018-06-15T17:06:12.857Z,0.40
2018-06-15T17:08:47.826Z,0.40
2018-06-15T17:11:21.997Z,0.40
2018-06-15T17:13:56.184Z,0.40
2018-06-15T17:16:30.485Z,0.40
2018-06-15T17:19:04.839Z,0.40
2018-06-15T17:21:38.984Z,0.40
2018-06-15T17:24:13.298Z,0.40
2018-06-15T17:26:47.579Z,0.40
2018-06-15T17:29:21.736Z,0.40
2018-06-15T17:31:56.045Z,0.40
2018-06-15T17:34:30.228Z,0.40
2018-06-15T17:37:04.317Z,0.50
2018-06-15T17:39:38.708Z,0.40
2018-06-15T17:42:12.931Z,0.40
2018-06-15T17:44:47.222Z,0.40
2018-06-15T17:47:21.383Z,0.40
2018-06-15T17:49:55.604Z,0.40
2018-06-15T17:52:29.728Z,0.50
2018-06-15T17:55:04.120Z,0.43
2018-06-15T17:57:38.478Z,0.40
2018-06-15T18:00:12.660Z,0.40
2018-06-15T18:02:46.871Z,0.43
2018-06-15T18:05:21.020Z,0.40
2018-06-15T18:07:55.221Z,0.40
2018-06-15T18:10:29.460Z,0.40
2018-06-15T18:13:03.670Z,0.50
2018-06-15T18:15:38.538Z,0.40
2018-06-15T18:18:13.546Z,0.50
2018-06-15T18:20:47.680Z,0.40
2018-06-15T18:23:22.031Z,0.40
2018-06-15T18:25:56.281Z,0.30
2018-06-15T18:28:30.610Z,0.40
2018-06-15T18:31:05.584Z,0.40
2018-06-15T18:33:39.770Z,0.40
2018-06-15T18:36:14.729Z,0.37
2018-06-15T18:38:49.671Z,0.40
2018-06-15T18:41:23.821Z,0.40
2018-06-15T18:43:58.899Z,0.40
2018-06-15T18:46:33.179Z,0.40
2018-06-15T18:49:07.597Z,0.40
2018-06-15T18:51:41.846Z,0.40
2018-06-15T18:54:16.073Z,0.40
2018-06-15T18:56:50.360Z,0.50
2018-06-15T18:59:24.695Z,0.40
2018-06-15T19:01:58.954Z,0.50
2018-06-15T19:04:33.854Z,0.40
2018-06-15T19:07:08.188Z,0.40
2018-06-15T19:09:42.320Z,0.40
2018-06-15T19:12:16.477Z,0.40
2018-06-15T19:14:50.721Z,0.50
2018-06-15T19:17:24.889Z,0.50
2018-06-15T19:19:59.071Z,0.50
2018-06-15T19:22:33.367Z,0.50
2018-06-15T19:25:07.751Z,0.40
2018-06-15T19:27:41.882Z,0.50
2018-06-15T19:30:16.968Z,0.50
2018-06-15T19:32:51.231Z,0.40
2018-06-15T19:35:26.289Z,0.43
2018-06-15T19:38:00.415Z,0.40
2018-06-15T19:40:34.677Z,0.50
2018-06-15T19:43:08.851Z,0.50
2018-06-15T19:45:42.965Z,0.40
2018-06-15T19:48:17.125Z,0.40
2018-06-15T19:50:51.380Z,0.40
2018-06-15T19:53:25.606Z,0.50
2018-06-15T19:55:59.817Z,0.40
2018-06-15T19:58:34.093Z,0.40
2018-06-15T20:01:08.392Z,0.40
2018-06-15T20:03:42.567Z,0.40
2018-06-15T20:06:16.790Z,0.50
2018-06-15T20:08:50.939Z,0.40
2018-06-15T20:11:25.379Z,0.50
2018-06-15T20:14:00.402Z,0.47
2018-06-15T20:16:34.640Z,0.40
2018-06-15T20:19:08.993Z,0.40
2018-06-15T20:21:44.066Z,0.47
2018-06-15T20:24:18.956Z,0.40
2018-06-15T20:26:53.117Z,0.50
2018-06-15T20:29:27.451Z,0.40
2018-06-15T20:32:02.351Z,0.50
2018-06-15T20:34:37.435Z,0.40
2018-06-15T20:37:11.704Z,0.50
2018-06-15T20:39:45.927Z,0.50
2018-06-15T20:42:20.146Z,0.40
2018-06-15T20:44:54.327Z,0.50
2018-06-15T20:47:28.539Z,0.50
2018-06-15T20:50:02.904Z,0.43
2018-06-15T20:52:37.132Z,0.47
2018-06-15T20:55:11.403Z,0.50
2018-06-15T20:57:46.480Z,0.50
2018-06-15T21:00:20.799Z,0.50
2018-06-15T21:02:55.099Z,0.50
2018-06-15T21:05:29.396Z,0.50
2018-06-15T21:08:03.656Z,0.50
2018-06-15T21:10:37.915Z,0.50
2018-06-15T21:13:12.907Z,0.50
2018-06-15T21:15:47.195Z,0.50
2018-06-15T21:18:21.285Z,0.60
2018-06-15T21:20:55.565Z,0.50
2018-06-15T21:23:29.735Z,0.40
2018-06-15T21:26:03.874Z,0.50
2018-06-15T21:28:37.955Z,0.50
2018-06-15T21:31:12.968Z,0.60
2018-06-15T21:33:48.410Z,0.50
2018-06-15T21:36:23.400Z,0.50
2018-06-15T21:38:57.738Z,0.50
2018-06-15T21:41:31.977Z,0.50
2018-06-15T21:44:06.227Z,0.50
2018-06-15T21:46:40.556Z,0.50
2018-06-15T21:49:15.474Z,0.50
2018-06-15T21:51:49.770Z,0.60
2018-06-15T21:54:24.890Z,0.50
2018-06-15T21:56:59.205Z,0.50
2018-06-15T21:59:33.385Z,0.47
2018-06-15T22:02:07.548Z,0.50
2018-06-15T22:04:42.235Z,0.50
2018-06-15T22:07:16.391Z,0.50
2018-06-15T22:09:50.569Z,0.50
2018-06-15T22:12:24.756Z,0.50
2018-06-15T22:14:58.912Z,0.60
2018-06-15T22:17:33.183Z,0.60
2018-06-15T22:20:07.505Z,0.60
2018-06-15T22:22:42.497Z,0.60
2018-06-15T22:25:16.620Z,0.50
2018-06-15T22:27:50.727Z,0.50
2018-06-15T22:30:25.143Z,0.50
2018-06-15T22:32:59.283Z,0.60
2018-06-15T22:35:33.645Z,0.60
2018-06-15T22:38:07.803Z,0.60
2018-06-15T22:40:42.093Z,0.50
2018-06-15T22:43:16.180Z,0.50
2018-06-15T22:45:50.498Z,0.50
2018-06-15T22:48:24.617Z,0.57
2018-06-15T22:50:58.888Z,0.50
2018-06-15T22:53:33.172Z,0.50
2018-06-15T22:56:07.389Z,0.50
2018-06-15T22:58:41.532Z,0.50
2018-06-15T23:01:15.696Z,0.53
2018-06-15T23:03:49.862Z,0.50
2018-06-15T23:06:24.146Z,0.50
2018-06-15T23:08:59.030Z,0.57
2018-06-15T23:11:33.411Z,0.50
2018-06-15T23:14:08.302Z,0.50
2018-06-15T23:16:42.563Z,0.60
2018-06-15T23:19:16.854Z,0.60
2018-06-15T23:21:51.143Z,0.60
2018-06-15T23:24:25.288Z,0.50
2018-06-15T23:26:59.628Z,0.50
2018-06-15T23:29:33.928Z,0.50
2018-06-15T23:32:08.844Z,0.60
2018-06-15T23:34:43.136Z,0.50
2018-06-15T23:37:17.396Z,0.50
2018-06-15T23:39:52.402Z,0.50
2018-06-15T23:42:27.338Z,0.50
2018-06-15T23:45:02.266Z,0.60
2018-06-15T23:47:37.285Z,0.60
2018-06-15T23:50:11.453Z,0.50
2018-06-15T23:52:46.400Z,0.57
2018-06-15T23:55:21.352Z,0.60
2018-06-15T23:57:55.538Z,0.60
